Fenton, Iowa
Current Conditions -  °F | °C
As of 4:15 PM on Sunday 23 Nov 2014 (Local Time) from KAXA Reporting Station
Overcast Overcast  
Wind Chill: 35°   Ceiling: 1200
Heat Index: 43°   Visibility: 10mi
Dew Point: 41°   Wind: 16mph
Humidity: 93%   Direction: 340°NNW
Pressure: 29.42"   Gusts: 25mph
Location:  43.22°N, 94.43°W
Report Text: KAXA 232215Z AUTO 34014G22KT 10SM OVC012 06/05 A2942 RMK AO2
Loading
Personal Weather Stations






























Interactive Weather Map New forecast layout! Learn more

10-Day Weather Forecast

Advertisements
Track Severe Weather on mobile